createdAt,value
2022-07-28T00:01:26.386Z,10.38
2022-07-28T00:03:54.362Z,20.27
2022-07-28T00:06:22.284Z,19.30
2022-07-28T00:08:51.934Z,24.00
2022-07-28T00:11:19.895Z,24.90
2022-07-28T00:13:47.885Z,15.00
2022-07-28T00:16:16.987Z,13.32
2022-07-28T00:18:45.911Z,13.35
2022-07-28T00:21:14.351Z,13.52
2022-07-28T00:23:42.478Z,10.60
2022-07-28T00:26:12.710Z,13.35
2022-07-28T00:28:40.692Z,10.77
2022-07-28T00:31:09.508Z,11.77
2022-07-28T00:33:39.024Z,9.30
2022-07-28T00:36:11.457Z,10.93
2022-07-28T00:38:44.029Z,10.90
2022-07-28T00:41:12.997Z,9.73
2022-07-28T00:43:44.244Z,10.93
2022-07-28T00:46:14.074Z,8.38
2022-07-28T00:48:45.575Z,10.43
2022-07-28T00:51:16.843Z,9.63
2022-07-28T00:53:45.548Z,7.78
2022-07-28T00:56:14.469Z,9.80
2022-07-28T00:58:43.259Z,9.93
2022-07-28T01:01:16.364Z,9.25
2022-07-28T01:03:51.412Z,10.80
2022-07-28T01:06:55.953Z,11.18
2022-07-28T01:09:52.454Z,9.23
2022-07-28T01:12:44.855Z,8.65
2022-07-28T01:15:23.906Z,8.98
2022-07-28T01:18:10.656Z,8.80
2022-07-28T01:20:55.269Z,8.30
2022-07-28T01:23:32.651Z,11.05
2022-07-28T01:26:19.185Z,9.95
2022-07-28T01:29:25.101Z,11.30
2022-07-28T01:32:02.167Z,7.30
2022-07-28T01:34:50.784Z,10.55
2022-07-28T01:37:29.886Z,7.68
2022-07-28T01:40:02.313Z,8.50
2022-07-28T01:42:42.794Z,7.40
2022-07-28T01:45:13.808Z,7.80
2022-07-28T01:47:45.921Z,8.15
2022-07-28T01:50:17.403Z,12.77
2022-07-28T01:52:48.276Z,9.35
2022-07-28T01:55:20.863Z,6.80
2022-07-28T01:57:52.744Z,8.63
2022-07-28T02:00:21.150Z,8.75
2022-07-28T02:02:53.011Z,7.13
2022-07-28T02:05:24.557Z,10.77
2022-07-28T02:07:54.253Z,7.18
2022-07-28T02:10:23.937Z,8.57
2022-07-28T02:12:56.918Z,8.27
2022-07-28T02:15:45.484Z,5.13
2022-07-28T02:18:16.423Z,7.13
2022-07-28T02:20:44.526Z,5.53
2022-07-28T02:23:15.358Z,5.57
2022-07-28T02:25:45.285Z,6.68
2022-07-28T02:30:57.416Z,6.47
2022-07-28T02:33:57.838Z,6.10
2022-07-28T02:36:29.813Z,5.53
2022-07-28T02:39:07.128Z,5.70
2022-07-28T02:41:42.968Z,6.10
2022-07-28T02:44:18.146Z,5.43
2022-07-28T02:46:49.267Z,5.10
2022-07-28T02:49:32.104Z,5.03
2022-07-28T02:52:04.353Z,7.05
2022-07-28T02:54:33.799Z,5.32
2022-07-28T02:57:02.721Z,6.22
2022-07-28T02:59:32.395Z,6.93
2022-07-28T03:02:01.204Z,7.35
2022-07-28T03:04:48.895Z,9.63
2022-07-28T03:07:17.602Z,5.82
2022-07-28T03:09:47.659Z,5.90
2022-07-28T03:12:16.447Z,5.57
2022-07-28T03:14:44.494Z,8.65
2022-07-28T03:17:12.918Z,7.30
2022-07-28T03:19:50.021Z,5.57
2022-07-28T03:22:20.100Z,7.57
2022-07-28T03:24:52.047Z,5.85
2022-07-28T03:27:26.145Z,7.15
2022-07-28T03:30:03.823Z,5.57
2022-07-28T03:32:38.066Z,6.32
2022-07-28T03:35:07.415Z,6.97
2022-07-28T03:37:55.305Z,5.03
2022-07-28T03:40:29.698Z,5.10
2022-07-28T03:43:00.846Z,7.03
2022-07-28T03:45:28.900Z,5.90
2022-07-28T03:47:59.326Z,5.45
2022-07-28T03:50:34.210Z,5.70
2022-07-28T03:53:05.990Z,5.15
2022-07-28T03:55:34.020Z,5.32
2022-07-28T03:58:03.837Z,4.97
2022-07-28T04:02:59.624Z,4.85
2022-07-28T04:05:27.783Z,6.47
2022-07-28T04:07:55.782Z,5.90
2022-07-28T04:10:23.797Z,5.85
2022-07-28T04:12:55.788Z,4.10
2022-07-28T04:15:25.491Z,4.38
2022-07-28T04:17:55.366Z,4.15
2022-07-28T04:22:55.920Z,4.32
2022-07-28T04:27:54.703Z,4.50
2022-07-28T04:30:25.444Z,3.50
2022-07-28T04:32:54.983Z,4.63
2022-07-28T04:35:25.232Z,6.47
2022-07-28T04:37:56.438Z,4.38
2022-07-28T04:40:24.911Z,4.38
2022-07-28T04:42:53.154Z,3.75
2022-07-28T04:45:21.507Z,3.72
2022-07-28T04:47:49.661Z,4.75
2022-07-28T04:50:20.018Z,3.80
2022-07-28T04:52:50.644Z,4.35
2022-07-28T04:55:19.417Z,3.45
2022-07-28T04:57:47.795Z,4.28
2022-07-28T05:00:16.290Z,5.70
2022-07-28T05:02:47.027Z,3.72
2022-07-28T05:05:16.232Z,4.88
2022-07-28T05:08:02.748Z,3.88
2022-07-28T05:10:30.954Z,6.18
2022-07-28T05:12:59.073Z,4.75
2022-07-28T05:15:27.183Z,4.75
2022-07-28T05:17:55.383Z,4.35
2022-07-28T05:20:23.510Z,4.07
2022-07-28T05:22:54.442Z,7.82
2022-07-28T05:25:26.208Z,4.70
2022-07-28T05:27:55.256Z,3.90
2022-07-28T05:30:23.470Z,4.10
2022-07-28T05:32:53.824Z,10.68
2022-07-28T05:35:21.845Z,8.32
2022-07-28T05:37:49.788Z,5.43
2022-07-28T05:40:19.798Z,4.13
2022-07-28T05:42:48.451Z,4.68
2022-07-28T05:45:17.795Z,4.20
2022-07-28T05:47:54.108Z,5.82
2022-07-28T05:50:26.836Z,5.88
2022-07-28T05:52:54.827Z,5.97
2022-07-28T05:55:23.867Z,3.55
2022-07-28T05:57:52.044Z,4.18
2022-07-28T06:00:22.975Z,4.97
2022-07-28T06:02:53.527Z,3.65
2022-07-28T06:05:24.351Z,3.50
2022-07-28T06:07:52.887Z,3.33
2022-07-28T06:10:23.533Z,5.40
2022-07-28T06:12:55.117Z,4.85
2022-07-28T06:15:26.340Z,4.15
2022-07-28T06:17:57.898Z,4.60
2022-07-28T06:20:28.619Z,4.10
2022-07-28T06:22:56.977Z,4.63
2022-07-28T06:25:31.892Z,4.10
2022-07-28T06:28:03.780Z,4.32
2022-07-28T06:30:32.604Z,3.53
2022-07-28T06:33:00.809Z,3.63
2022-07-28T06:35:28.777Z,4.75
2022-07-28T06:37:56.633Z,4.07
2022-07-28T06:40:25.167Z,4.55
2022-07-28T06:42:53.245Z,5.68
2022-07-28T06:45:22.013Z,3.80
2022-07-28T06:47:54.284Z,5.90
2022-07-28T06:50:26.430Z,3.97
2022-07-28T06:52:59.416Z,4.30
2022-07-28T06:55:35.244Z,3.65
2022-07-28T06:58:05.734Z,4.97
2022-07-28T07:00:35.365Z,4.13
2022-07-28T07:03:03.490Z,5.72
2022-07-28T07:05:32.926Z,6.13
2022-07-28T07:10:30.521Z,6.17
2022-07-28T07:12:58.574Z,4.80
2022-07-28T07:15:26.787Z,4.50
2022-07-28T07:17:54.912Z,4.13
2022-07-28T07:20:23.009Z,4.32
2022-07-28T07:22:51.559Z,7.20
2022-07-28T07:25:20.666Z,3.83
2022-07-28T07:27:51.437Z,5.50
2022-07-28T07:30:22.829Z,5.57
2022-07-28T07:32:51.042Z,4.20
2022-07-28T07:35:19.888Z,3.92
2022-07-28T07:37:48.722Z,4.30
2022-07-28T07:40:16.824Z,4.25
2022-07-28T07:42:44.841Z,4.22
2022-07-28T07:45:13.244Z,5.80
2022-07-28T07:47:41.571Z,4.97
2022-07-28T07:50:09.973Z,4.50
2022-07-28T07:52:39.110Z,4.15
2022-07-28T07:55:07.862Z,5.20
2022-07-28T07:57:35.952Z,3.83
2022-07-28T08:00:06.757Z,6.68
2022-07-28T08:02:34.821Z,4.45
2022-07-28T08:05:02.883Z,5.25
2022-07-28T08:07:31.737Z,4.00
2022-07-28T08:10:00.329Z,4.82
2022-07-28T08:12:28.756Z,4.28
2022-07-28T08:14:57.025Z,4.18
2022-07-28T08:17:26.252Z,4.15
2022-07-28T08:19:55.441Z,7.68
2022-07-28T08:22:24.167Z,4.05
2022-07-28T08:24:52.932Z,5.97
2022-07-28T08:27:20.995Z,5.25
2022-07-28T08:29:49.421Z,3.92
2022-07-28T08:32:19.158Z,4.38
2022-07-28T08:34:47.340Z,5.05
2022-07-28T08:37:15.628Z,3.72
2022-07-28T08:39:43.800Z,5.18
2022-07-28T08:42:41.071Z,4.80
2022-07-28T08:45:12.587Z,3.50
2022-07-28T08:47:58.881Z,4.00
2022-07-28T08:50:32.847Z,3.47
2022-07-28T08:53:02.145Z,6.18
2022-07-28T08:55:31.617Z,4.50
2022-07-28T08:58:01.324Z,4.47
2022-07-28T09:00:29.844Z,4.03
2022-07-28T09:02:58.354Z,4.50
2022-07-28T09:05:26.678Z,3.85
2022-07-28T09:07:58.502Z,5.70
2022-07-28T09:10:26.977Z,5.82
2022-07-28T09:12:56.732Z,7.85
2022-07-28T09:15:34.066Z,5.50
2022-07-28T09:18:04.881Z,4.28
2022-07-28T09:20:33.204Z,4.40
2022-07-28T09:23:04.311Z,4.30
2022-07-28T09:25:34.307Z,4.25
2022-07-28T09:28:16.619Z,3.50
2022-07-28T09:30:54.088Z,5.18
2022-07-28T09:33:41.984Z,6.55
2022-07-28T09:36:20.599Z,6.10
2022-07-28T09:38:48.788Z,4.30
2022-07-28T09:41:19.411Z,5.18
2022-07-28T09:43:53.918Z,3.85
2022-07-28T09:46:25.754Z,4.15
2022-07-28T09:49:07.552Z,4.15
2022-07-28T09:51:37.911Z,5.95
2022-07-28T09:54:11.170Z,3.72
2022-07-28T09:56:41.668Z,4.47
2022-07-28T09:59:09.861Z,3.72
2022-07-28T10:04:38.691Z,6.05
2022-07-28T10:07:14.567Z,4.32
2022-07-28T10:09:42.983Z,4.32
2022-07-28T10:12:24.554Z,4.30
2022-07-28T10:14:54.707Z,4.07
2022-07-28T10:17:41.021Z,3.63
2022-07-28T10:20:30.644Z,3.92
2022-07-28T10:23:07.343Z,4.35
2022-07-28T10:25:36.400Z,3.53
2022-07-28T10:28:05.816Z,3.97
2022-07-28T10:30:44.196Z,3.30
2022-07-28T10:33:16.753Z,7.88
2022-07-28T10:35:55.206Z,3.67
2022-07-28T10:38:42.629Z,4.25
2022-07-28T10:41:13.735Z,5.25
2022-07-28T10:43:45.530Z,5.65
2022-07-28T10:46:16.605Z,3.45
2022-07-28T10:48:45.759Z,3.70
2022-07-28T10:51:23.774Z,4.10
2022-07-28T10:54:30.424Z,4.45
2022-07-28T10:57:01.050Z,3.40
2022-07-28T10:59:58.307Z,4.15
2022-07-28T11:02:46.695Z,3.63
2022-07-28T11:05:30.762Z,5.18
2022-07-28T11:08:04.123Z,3.55
2022-07-28T11:10:46.301Z,3.92
2022-07-28T11:13:29.010Z,3.63
2022-07-28T11:16:16.350Z,4.50
2022-07-28T11:19:04.644Z,5.30
2022-07-28T11:21:39.837Z,4.63
2022-07-28T11:24:09.143Z,4.15
2022-07-28T11:26:46.211Z,3.83
2022-07-28T11:29:14.898Z,4.20
2022-07-28T11:31:45.875Z,5.60
2022-07-28T11:34:18.906Z,4.43
2022-07-28T11:36:59.696Z,6.10
2022-07-28T11:39:42.821Z,5.80
2022-07-28T11:42:36.421Z,6.30
2022-07-28T11:45:37.725Z,3.20
2022-07-28T11:48:16.628Z,5.28
2022-07-28T11:51:05.510Z,6.53
2022-07-28T11:53:40.570Z,6.37
2022-07-28T11:56:12.403Z,7.35
2022-07-28T11:58:41.530Z,5.78
2022-07-28T12:01:21.874Z,5.03
2022-07-28T12:03:56.154Z,4.22
2022-07-28T12:06:28.515Z,5.28
2022-07-28T12:09:03.669Z,4.78
2022-07-28T12:11:37.543Z,3.92
2022-07-28T12:14:25.034Z,3.80
2022-07-28T12:16:53.425Z,3.85
2022-07-28T12:19:21.881Z,4.97
2022-07-28T12:21:53.365Z,5.57
2022-07-28T12:24:31.347Z,5.38
2022-07-28T12:27:02.908Z,5.03
2022-07-28T12:29:35.685Z,5.70
2022-07-28T12:32:07.302Z,7.38
2022-07-28T12:34:40.745Z,4.15
2022-07-28T12:37:11.395Z,6.20
2022-07-28T12:39:42.957Z,5.88
2022-07-28T12:42:14.322Z,4.55
2022-07-28T12:44:51.835Z,5.30
2022-07-28T12:47:28.723Z,6.35
2022-07-28T12:50:14.642Z,4.63
2022-07-28T12:52:44.767Z,5.15
2022-07-28T12:55:27.671Z,4.72
2022-07-28T12:57:56.070Z,6.05
2022-07-28T13:00:31.549Z,6.15
2022-07-28T13:03:02.371Z,6.65
2022-07-28T13:05:31.332Z,5.20
2022-07-28T13:08:09.092Z,3.97
2022-07-28T13:10:48.791Z,5.47
2022-07-28T13:13:23.674Z,6.47
2022-07-28T13:16:13.599Z,5.78
2022-07-28T13:18:48.986Z,4.85
2022-07-28T13:21:17.309Z,6.55
2022-07-28T13:23:46.131Z,5.72
2022-07-28T13:26:14.474Z,6.72
2022-07-28T13:28:42.464Z,5.00
2022-07-28T13:31:10.711Z,5.55
2022-07-28T13:33:41.984Z,7.70
2022-07-28T13:36:10.134Z,5.68
2022-07-28T13:38:38.552Z,5.78
2022-07-28T13:41:08.143Z,5.20
2022-07-28T13:43:36.658Z,6.90
2022-07-28T13:46:05.041Z,6.65
2022-07-28T13:48:34.457Z,6.38
2022-07-28T13:51:03.032Z,4.82
2022-07-28T13:53:31.014Z,6.40
2022-07-28T13:56:05.593Z,8.20
2022-07-28T13:58:34.306Z,6.65
2022-07-28T14:01:03.812Z,6.63
2022-07-28T14:03:56.888Z,9.60
2022-07-28T14:06:22.669Z,13.02
2022-07-28T14:08:53.259Z,7.97
2022-07-28T14:11:23.836Z,9.63
2022-07-28T14:13:52.731Z,9.98
2022-07-28T14:16:23.945Z,7.93
2022-07-28T14:18:52.446Z,7.78
2022-07-28T14:21:20.536Z,11.73
2022-07-28T14:23:50.163Z,16.77
2022-07-28T14:26:35.600Z,237.05
2022-07-28T14:29:11.552Z,187.07
2022-07-28T14:31:40.842Z,65.88
2022-07-28T14:34:11.031Z,17.13
2022-07-28T14:36:41.183Z,10.38
2022-07-28T14:39:12.583Z,10.70
2022-07-28T14:41:43.436Z,10.30
2022-07-28T14:44:17.868Z,6.68
2022-07-28T14:46:52.497Z,14.45
2022-07-28T14:49:21.621Z,10.27
2022-07-28T14:51:51.125Z,15.83
2022-07-28T14:54:19.387Z,11.15
2022-07-28T14:56:47.587Z,9.18
2022-07-28T14:59:16.468Z,5.15
2022-07-28T15:01:44.674Z,7.05
2022-07-28T15:04:14.392Z,8.30
2022-07-28T15:06:42.537Z,6.50
2022-07-28T15:09:13.572Z,11.35
2022-07-28T15:11:50.918Z,8.27
2022-07-28T15:14:21.672Z,13.30
2022-07-28T15:16:50.617Z,9.98
2022-07-28T15:19:19.267Z,10.45
2022-07-28T15:21:48.311Z,7.78
2022-07-28T15:24:17.072Z,10.60
2022-07-28T15:26:45.450Z,14.27
2022-07-28T15:29:23.516Z,9.45
2022-07-28T15:31:58.524Z,12.65
2022-07-28T15:34:27.337Z,8.77
2022-07-28T15:36:57.194Z,8.55
2022-07-28T15:39:30.952Z,10.30
2022-07-28T15:42:01.098Z,12.20
2022-07-28T15:44:30.582Z,9.00
2022-07-28T15:47:12.935Z,11.73
2022-07-28T15:50:45.903Z,15.30
2022-07-28T15:53:20.288Z,19.70
2022-07-28T15:55:51.262Z,14.60
2022-07-28T15:58:21.678Z,13.43
2022-07-28T16:01:08.376Z,14.73
2022-07-28T16:03:36.709Z,13.82
2022-07-28T16:06:04.745Z,18.42
2022-07-28T16:08:32.861Z,22.60
2022-07-28T16:11:01.195Z,16.85
2022-07-28T16:13:35.924Z,19.75
2022-07-28T16:16:14.445Z,16.20
2022-07-28T16:18:44.450Z,20.27
2022-07-28T16:21:12.650Z,17.05
2022-07-28T16:23:40.864Z,13.45
2022-07-28T16:26:09.892Z,13.75
2022-07-28T16:28:39.141Z,12.50
2022-07-28T16:31:07.376Z,14.30
2022-07-28T16:33:35.562Z,11.00
2022-07-28T16:36:04.776Z,11.23
2022-07-28T16:38:33.896Z,8.45
2022-07-28T16:41:03.645Z,10.27
2022-07-28T16:43:53.224Z,9.07
2022-07-28T16:46:22.849Z,14.48
2022-07-28T16:48:51.208Z,10.45
2022-07-28T16:51:19.375Z,9.93
2022-07-28T16:53:50.656Z,12.63
2022-07-28T16:56:18.978Z,28.25
2022-07-28T16:58:48.005Z,20.27
2022-07-28T17:01:16.917Z,14.05
2022-07-28T17:03:47.817Z,17.30
2022-07-28T17:06:16.821Z,14.32
2022-07-28T17:08:44.936Z,36.28
2022-07-28T17:11:13.961Z,29.48
2022-07-28T17:13:47.101Z,42.15
2022-07-28T17:16:15.353Z,23.67
2022-07-28T17:18:43.574Z,31.27
2022-07-28T17:21:13.287Z,22.05
2022-07-28T17:28:59.961Z,17.70
2022-07-28T17:31:28.441Z,23.85
2022-07-28T17:34:02.281Z,30.42
2022-07-28T17:36:46.441Z,23.10
2022-07-28T17:39:15.710Z,14.57
2022-07-28T17:41:44.701Z,13.07
2022-07-28T17:44:12.872Z,20.92
2022-07-28T17:46:41.952Z,22.42
2022-07-28T17:49:11.014Z,168.55
2022-07-28T17:51:39.272Z,102.25
2022-07-28T17:54:07.396Z,125.82
2022-07-28T17:56:38.354Z,193.70
2022-07-28T17:59:09.060Z,134.95
2022-07-28T18:01:38.969Z,132.93
2022-07-28T18:04:10.383Z,262.50
2022-07-28T18:06:41.069Z,314.27
2022-07-28T18:09:14.153Z,135.23
2022-07-28T18:11:56.619Z,80.15
2022-07-28T18:14:30.234Z,44.30
2022-07-28T18:17:00.035Z,29.73
2022-07-28T18:19:29.386Z,33.42
2022-07-28T18:21:57.579Z,28.25
2022-07-28T18:24:28.969Z,24.50
2022-07-28T18:26:57.453Z,26.65
2022-07-28T18:29:26.620Z,45.05
2022-07-28T18:32:09.798Z,29.42
2022-07-28T18:34:39.861Z,41.72
2022-07-28T18:37:07.849Z,32.38
2022-07-28T18:39:35.930Z,33.72
2022-07-28T18:42:04.173Z,25.70
2022-07-28T18:44:33.545Z,29.50
2022-07-28T18:47:02.461Z,43.47
2022-07-28T18:49:37.276Z,81.82
2022-07-28T18:52:21.696Z,79.93
2022-07-28T18:54:53.088Z,53.70
2022-07-28T18:57:21.144Z,33.63
2022-07-28T18:59:52.400Z,26.60
2022-07-28T19:02:20.664Z,61.28
2022-07-28T19:04:49.020Z,66.55
2022-07-28T19:07:17.071Z,80.78
2022-07-28T19:09:45.110Z,53.90
2022-07-28T19:12:13.185Z,24.17
2022-07-28T19:14:41.600Z,18.27
2022-07-28T19:17:10.010Z,20.27
2022-07-28T19:19:38.307Z,39.70
2022-07-28T19:22:10.683Z,61.13
2022-07-28T19:24:39.812Z,41.33
2022-07-28T19:27:07.940Z,36.37
2022-07-28T19:29:36.598Z,25.50
2022-07-28T19:32:05.231Z,21.83
2022-07-28T19:34:35.923Z,18.85
2022-07-28T19:37:04.218Z,20.17
2022-07-28T19:39:35.121Z,19.50
2022-07-28T19:42:03.278Z,22.40
2022-07-28T19:44:32.419Z,19.95
2022-07-28T19:47:02.545Z,20.42
2022-07-28T19:49:30.546Z,19.35
2022-07-28T19:51:58.683Z,19.60
2022-07-28T19:54:27.476Z,20.27
2022-07-28T19:56:55.667Z,18.23
2022-07-28T19:59:24.391Z,16.42
2022-07-28T20:01:52.481Z,16.92
2022-07-28T20:04:24.244Z,13.60
2022-07-28T20:06:55.644Z,14.73
2022-07-28T20:09:24.282Z,17.42
2022-07-28T20:11:52.922Z,15.98
2022-07-28T20:14:21.147Z,17.40
2022-07-28T20:16:49.213Z,18.25
2022-07-28T20:19:17.508Z,17.38
2022-07-28T20:21:45.597Z,18.88
2022-07-28T20:24:15.274Z,17.33
2022-07-28T20:26:43.908Z,17.00
2022-07-28T20:29:12.026Z,16.13
2022-07-28T20:31:40.131Z,15.38
2022-07-28T20:34:08.492Z,15.00
2022-07-28T20:36:36.570Z,15.73
2022-07-28T20:39:21.019Z,17.25
2022-07-28T20:41:52.850Z,23.10
2022-07-28T20:44:29.690Z,16.52
2022-07-28T20:47:03.143Z,14.80
2022-07-28T20:49:31.429Z,15.35
2022-07-28T20:52:00.585Z,16.85
2022-07-28T20:54:28.632Z,16.52
2022-07-28T20:56:56.884Z,12.80
2022-07-28T20:59:28.557Z,12.02
2022-07-28T21:01:57.422Z,17.55
2022-07-28T21:04:27.000Z,18.73
2022-07-28T21:07:01.753Z,14.73
2022-07-28T21:09:30.918Z,15.60
2022-07-28T21:11:58.898Z,18.02
2022-07-28T21:14:26.956Z,15.38
2022-07-28T21:16:55.314Z,14.43
2022-07-28T21:19:23.572Z,15.77
2022-07-28T21:21:51.739Z,16.73
2022-07-28T21:24:19.779Z,15.93
2022-07-28T21:26:50.353Z,11.88
2022-07-28T21:32:04.206Z,13.32
2022-07-28T21:34:35.744Z,14.10
2022-07-28T21:37:05.505Z,15.25
2022-07-28T21:39:34.809Z,15.23
2022-07-28T21:42:05.798Z,17.92
2022-07-28T21:44:36.590Z,16.65
2022-07-28T21:47:05.335Z,17.73
2022-07-28T21:49:33.415Z,15.57
2022-07-28T21:52:01.426Z,16.08
2022-07-28T21:54:30.335Z,15.23
2022-07-28T21:56:58.704Z,16.73
2022-07-28T21:59:26.721Z,14.13
2022-07-28T22:01:54.975Z,13.45
2022-07-28T22:04:25.828Z,17.70
2022-07-28T22:06:54.052Z,18.23
2022-07-28T22:09:22.109Z,16.80
2022-07-28T22:11:50.194Z,13.20
2022-07-28T22:14:18.644Z,15.50
2022-07-28T22:16:47.312Z,15.18
2022-07-28T22:19:15.381Z,14.88
2022-07-28T22:21:43.661Z,15.95
2022-07-28T22:24:12.070Z,13.73
2022-07-28T22:26:40.315Z,16.58
2022-07-28T22:29:08.326Z,12.65
2022-07-28T22:31:36.420Z,16.55
2022-07-28T22:34:06.914Z,12.65
2022-07-28T22:36:34.936Z,14.77
2022-07-28T22:39:02.908Z,16.65
2022-07-28T22:41:30.951Z,15.05
2022-07-28T22:43:59.101Z,16.25
2022-07-28T22:46:27.242Z,12.82
2022-07-28T22:48:55.916Z,13.52
2022-07-28T22:51:24.022Z,11.60
2022-07-28T22:53:52.309Z,14.68
2022-07-28T22:56:20.464Z,15.77
2022-07-28T22:58:49.333Z,11.93
2022-07-28T23:01:20.356Z,13.55
2022-07-28T23:03:48.579Z,15.45
2022-07-28T23:06:17.230Z,15.70
2022-07-28T23:08:45.190Z,13.23
2022-07-28T23:11:14.608Z,14.32
2022-07-28T23:13:44.306Z,12.82
2022-07-28T23:16:14.514Z,11.70
2022-07-28T23:18:44.847Z,11.88
2022-07-28T23:21:13.447Z,11.57
2022-07-28T23:23:41.536Z,12.57
2022-07-28T23:26:09.591Z,12.27
2022-07-28T23:28:37.693Z,12.93
2022-07-28T23:31:06.463Z,10.63
2022-07-28T23:33:55.751Z,11.38
2022-07-28T23:36:26.476Z,12.38
2022-07-28T23:38:59.899Z,13.00
2022-07-28T23:41:28.742Z,12.13
2022-07-28T23:43:56.749Z,12.73
2022-07-28T23:46:24.824Z,11.20
2022-07-28T23:48:54.277Z,14.45
2022-07-28T23:51:46.781Z,11.23
2022-07-28T23:54:14.450Z,10.15
2022-07-28T23:56:43.700Z,10.73
2022-07-28T23:59:14.383Z,11.23
